createdAt,value
2023-02-12T00:01:08.180Z,6.04
2023-02-12T00:03:35.717Z,5.86
2023-02-12T00:06:03.329Z,5.84
2023-02-12T00:08:29.657Z,5.81
2023-02-12T00:10:56.219Z,5.89
2023-02-12T00:13:23.206Z,5.79
2023-02-12T00:15:50.130Z,5.80
2023-02-12T00:18:16.437Z,5.83
2023-02-12T00:20:42.972Z,5.79
2023-02-12T00:23:10.582Z,5.73
2023-02-12T00:25:40.920Z,5.60
2023-02-12T00:28:07.331Z,5.56
2023-02-12T00:30:34.759Z,5.59
2023-02-12T00:33:00.935Z,5.60
2023-02-12T00:35:27.455Z,5.66
2023-02-12T00:37:53.616Z,5.71
2023-02-12T00:40:20.244Z,5.80
2023-02-12T00:42:46.394Z,5.87
2023-02-12T00:45:13.118Z,5.93
2023-02-12T00:47:39.303Z,5.94
2023-02-12T00:50:06.572Z,6.01
2023-02-12T00:52:33.063Z,6.03
2023-02-12T00:54:59.528Z,6.02
2023-02-12T00:57:25.669Z,6.06
2023-02-12T00:59:52.092Z,6.09
2023-02-12T01:02:18.282Z,6.13
2023-02-12T01:04:46.517Z,6.16
2023-02-12T01:07:12.816Z,6.17
2023-02-12T01:09:39.267Z,6.23
2023-02-12T01:12:05.935Z,6.17
2023-02-12T01:14:32.524Z,6.17
2023-02-12T01:16:58.670Z,6.27
2023-02-12T01:19:25.368Z,6.20
2023-02-12T01:21:51.503Z,6.21
2023-02-12T01:24:17.976Z,6.24
2023-02-12T01:26:44.126Z,6.21
2023-02-12T01:29:10.775Z,6.23
2023-02-12T01:31:38.866Z,6.24
2023-02-12T01:34:07.070Z,6.35
2023-02-12T01:36:33.805Z,6.38
2023-02-12T01:39:02.110Z,6.27
2023-02-12T01:41:32.231Z,6.22
2023-02-12T01:44:09.128Z,6.19
2023-02-12T01:46:35.805Z,6.09
2023-02-12T01:49:06.028Z,6.05
2023-02-12T01:51:34.276Z,6.00
2023-02-12T01:54:07.247Z,5.95
2023-02-12T01:56:33.895Z,5.92
2023-02-12T01:59:00.651Z,6.02
2023-02-12T02:01:30.270Z,6.03
2023-02-12T02:04:14.146Z,6.13
2023-02-12T02:06:52.249Z,6.20
2023-02-12T02:09:19.178Z,6.24
2023-02-12T02:12:04.118Z,6.16
2023-02-12T02:14:33.703Z,6.23
2023-02-12T02:17:29.869Z,6.27
2023-02-12T02:20:12.274Z,6.27
2023-02-12T02:22:41.536Z,6.27
2023-02-12T02:25:29.220Z,6.29
2023-02-12T02:27:55.227Z,6.31
2023-02-12T02:30:44.714Z,6.33
2023-02-12T02:33:39.583Z,6.35
2023-02-12T02:36:24.858Z,6.37
2023-02-12T02:38:59.189Z,6.39
2023-02-12T02:41:35.391Z,6.40
2023-02-12T02:44:09.604Z,6.40
2023-02-12T02:46:44.178Z,6.42
2023-02-12T02:49:17.936Z,6.41
2023-02-12T02:51:49.156Z,6.29
2023-02-12T02:54:33.052Z,6.32
2023-02-12T02:57:07.397Z,6.36
2023-02-12T02:59:42.001Z,6.39
2023-02-12T03:02:13.480Z,6.41
2023-02-12T03:04:49.321Z,6.43
2023-02-12T03:07:24.669Z,6.43
2023-02-12T03:10:00.544Z,6.44
2023-02-12T03:12:54.594Z,6.44
2023-02-12T03:15:36.562Z,6.44
2023-02-12T03:18:07.711Z,6.44
2023-02-12T03:20:41.363Z,6.44
2023-02-12T03:23:16.656Z,6.47
2023-02-12T03:25:56.372Z,6.47
2023-02-12T03:28:29.231Z,6.45
2023-02-12T03:31:17.738Z,6.46
2023-02-12T03:34:03.090Z,6.47
2023-02-12T03:36:41.231Z,6.50
2023-02-12T03:39:19.379Z,6.50
2023-02-12T03:41:57.368Z,6.51
2023-02-12T03:44:43.767Z,6.37
2023-02-12T03:47:31.837Z,6.48
2023-02-12T03:50:22.451Z,6.50
2023-02-12T03:52:50.058Z,6.39
2023-02-12T03:55:16.882Z,6.38
2023-02-12T03:57:52.343Z,6.40
2023-02-12T04:00:23.111Z,6.17
2023-02-12T04:02:51.280Z,6.18
2023-02-12T04:05:26.504Z,6.16
2023-02-12T04:07:56.234Z,6.16
2023-02-12T04:10:31.846Z,6.09
2023-02-12T04:13:14.908Z,6.06
2023-02-12T04:15:50.991Z,6.16
2023-02-12T04:18:23.717Z,6.13
2023-02-12T04:21:22.455Z,6.09
2023-02-12T04:24:41.510Z,6.20
2023-02-12T04:27:25.713Z,6.29
2023-02-12T04:30:04.929Z,6.34
2023-02-12T04:32:45.745Z,6.34
2023-02-12T04:35:16.913Z,6.33
2023-02-12T04:37:48.424Z,6.41
2023-02-12T04:40:17.634Z,6.38
2023-02-12T04:42:46.792Z,6.47
2023-02-12T04:45:20.223Z,6.46
2023-02-12T04:47:46.941Z,6.52
2023-02-12T04:50:13.666Z,6.62
2023-02-12T04:52:40.492Z,6.53
2023-02-12T04:55:06.978Z,6.58
2023-02-12T04:57:33.745Z,6.53
2023-02-12T05:00:00.315Z,6.49
2023-02-12T05:02:26.920Z,6.46
2023-02-12T05:04:53.307Z,6.43
2023-02-12T05:07:20.081Z,6.39
2023-02-12T05:09:46.380Z,6.43
2023-02-12T05:12:13.252Z,6.38
2023-02-12T05:14:39.613Z,6.44
2023-02-12T05:17:06.326Z,6.46
2023-02-12T05:19:32.656Z,6.54
2023-02-12T05:21:59.379Z,6.45
2023-02-12T05:24:25.553Z,6.50
2023-02-12T05:26:52.460Z,6.45
2023-02-12T05:29:18.994Z,6.47
2023-02-12T05:31:45.676Z,6.40
2023-02-12T05:34:12.622Z,6.47
2023-02-12T05:36:39.713Z,6.62
2023-02-12T05:39:06.947Z,6.67
2023-02-12T05:41:36.811Z,6.64
2023-02-12T05:44:04.947Z,6.54
2023-02-12T05:46:32.066Z,6.47
2023-02-12T05:48:58.364Z,6.48
2023-02-12T05:51:26.463Z,6.46
2023-02-12T05:53:58.043Z,6.42
2023-02-12T05:56:29.010Z,6.40
2023-02-12T05:59:06.382Z,6.51
2023-02-12T06:01:34.386Z,6.62
2023-02-12T06:04:01.681Z,6.58
2023-02-12T06:06:29.223Z,6.54
2023-02-12T06:08:56.599Z,6.56
2023-02-12T06:11:23.577Z,6.59
2023-02-12T06:13:50.012Z,6.61
2023-02-12T06:16:22.101Z,6.68
2023-02-12T06:18:48.666Z,6.67
2023-02-12T06:21:17.043Z,6.63
2023-02-12T06:23:43.316Z,6.50
2023-02-12T06:26:10.090Z,6.56
2023-02-12T06:28:36.397Z,6.63
2023-02-12T06:31:04.033Z,6.69
2023-02-12T06:33:30.604Z,6.67
2023-02-12T06:35:57.458Z,6.54
2023-02-12T06:38:23.783Z,6.44
2023-02-12T06:40:50.272Z,6.40
2023-02-12T06:43:16.508Z,6.49
2023-02-12T06:45:42.964Z,6.69
2023-02-12T06:48:09.111Z,6.72
2023-02-12T06:50:35.611Z,6.75
2023-02-12T06:53:01.765Z,6.64
2023-02-12T06:55:28.243Z,6.55
2023-02-12T06:57:54.730Z,6.62
2023-02-12T07:00:21.688Z,6.58
2023-02-12T07:02:55.192Z,6.52
2023-02-12T07:05:23.372Z,6.46
2023-02-12T07:07:49.564Z,6.47
2023-02-12T07:10:17.190Z,6.57
2023-02-12T07:12:43.753Z,6.53
2023-02-12T07:15:10.568Z,6.64
2023-02-12T07:17:36.977Z,6.76
2023-02-12T07:20:04.579Z,6.84
2023-02-12T07:22:31.128Z,6.79
2023-02-12T07:24:57.619Z,6.73
2023-02-12T07:27:23.935Z,6.70
2023-02-12T07:29:51.153Z,6.62
2023-02-12T07:32:17.571Z,6.55
2023-02-12T07:34:44.138Z,6.58
2023-02-12T07:37:10.781Z,6.47
2023-02-12T07:39:37.269Z,6.50
2023-02-12T07:42:03.751Z,6.53
2023-02-12T07:44:31.776Z,6.62
2023-02-12T07:46:57.999Z,6.66
2023-02-12T07:49:24.736Z,6.61
2023-02-12T07:51:51.228Z,6.73
2023-02-12T07:54:17.901Z,6.68
2023-02-12T07:56:46.216Z,6.74
2023-02-12T07:59:15.424Z,6.74
2023-02-12T08:01:52.900Z,6.71
2023-02-12T08:04:22.451Z,6.75
2023-02-12T08:06:50.793Z,6.76
2023-02-12T08:09:20.349Z,6.73
2023-02-12T08:11:47.249Z,6.84
2023-02-12T08:14:16.327Z,6.83
2023-02-12T08:16:44.908Z,6.86
2023-02-12T08:19:19.049Z,6.91
2023-02-12T08:21:49.576Z,6.98
2023-02-12T08:24:15.891Z,6.99
2023-02-12T08:26:43.565Z,7.04
2023-02-12T08:29:13.473Z,6.99
2023-02-12T08:31:46.290Z,6.76
2023-02-12T08:34:21.585Z,6.66
2023-02-12T08:36:49.998Z,6.73
2023-02-12T08:39:17.718Z,6.70
2023-02-12T08:41:45.179Z,6.71
2023-02-12T08:44:12.526Z,6.72
2023-02-12T08:46:43.333Z,6.71
2023-02-12T08:49:24.319Z,6.65
2023-02-12T08:51:52.690Z,6.68
2023-02-12T08:54:25.192Z,6.69
2023-02-12T08:56:59.977Z,6.63
2023-02-12T08:59:26.614Z,6.63
2023-02-12T09:01:53.694Z,6.67
2023-02-12T09:04:27.683Z,6.83
2023-02-12T09:06:54.674Z,6.87
2023-02-12T09:09:21.134Z,6.93
2023-02-12T09:11:48.626Z,6.91
2023-02-12T09:14:16.980Z,6.87
2023-02-12T09:16:44.136Z,6.94
2023-02-12T09:19:14.515Z,7.04
2023-02-12T09:21:42.111Z,7.15
2023-02-12T09:24:08.986Z,7.24
2023-02-12T09:26:35.987Z,7.28
2023-02-12T09:29:03.810Z,7.30
2023-02-12T09:31:31.984Z,7.28
2023-02-12T09:34:01.636Z,7.30
2023-02-12T09:36:29.367Z,7.38
2023-02-12T09:38:56.809Z,7.40
2023-02-12T09:41:54.544Z,7.52
2023-02-12T09:44:42.439Z,7.54
2023-02-12T09:47:13.185Z,7.58
2023-02-12T09:49:42.581Z,7.54
2023-02-12T09:52:28.799Z,7.57
2023-02-12T09:54:55.813Z,7.53
2023-02-12T09:57:35.505Z,7.52
2023-02-12T10:00:21.419Z,7.59
2023-02-12T10:02:51.474Z,7.66
2023-02-12T10:05:40.982Z,7.74
2023-02-12T10:08:25.095Z,7.78
2023-02-12T10:10:51.537Z,7.80
2023-02-12T10:13:47.496Z,7.80
2023-02-12T10:16:58.214Z,7.78
2023-02-12T10:19:36.892Z,7.85
2023-02-12T10:22:21.889Z,7.88
2023-02-12T10:24:56.222Z,7.85
2023-02-12T10:27:33.146Z,7.81
2023-02-12T10:30:00.576Z,7.82
2023-02-12T10:32:32.476Z,7.80
2023-02-12T10:34:59.438Z,7.83
2023-02-12T10:37:39.654Z,7.92
2023-02-12T10:40:16.301Z,7.99
2023-02-12T10:42:46.335Z,8.12
2023-02-12T10:45:15.833Z,8.20
2023-02-12T10:47:49.785Z,8.22
2023-02-12T10:50:33.701Z,8.18
2023-02-12T10:53:03.084Z,8.24
2023-02-12T10:55:32.776Z,8.16
2023-02-12T10:58:01.412Z,8.22
2023-02-12T11:00:34.726Z,8.32
2023-02-12T11:03:01.000Z,8.37
2023-02-12T11:05:30.366Z,8.33
2023-02-12T11:07:59.725Z,8.34
2023-02-12T11:10:31.265Z,8.26
2023-02-12T11:12:59.244Z,8.26
2023-02-12T11:15:30.632Z,8.22
2023-02-12T11:18:05.435Z,8.13
2023-02-12T11:20:40.639Z,8.05
2023-02-12T11:23:29.443Z,8.08
2023-02-12T11:25:59.148Z,8.20
2023-02-12T11:28:26.847Z,8.20
2023-02-12T11:31:00.216Z,8.26
2023-02-12T11:33:34.758Z,8.24
2023-02-12T11:36:12.936Z,8.22
2023-02-12T11:38:52.498Z,8.19
2023-02-12T11:41:25.405Z,8.16
2023-02-12T11:43:52.990Z,8.24
2023-02-12T11:46:25.907Z,8.29
2023-02-12T11:48:54.931Z,8.32
2023-02-12T11:51:29.460Z,8.33
2023-02-12T11:54:01.457Z,8.35
2023-02-12T11:56:43.924Z,8.41
2023-02-12T11:59:37.801Z,8.53
2023-02-12T12:02:27.007Z,8.64
2023-02-12T12:05:02.558Z,8.76
2023-02-12T12:07:33.530Z,8.94
2023-02-12T12:10:07.074Z,8.88
2023-02-12T12:12:47.573Z,8.87
2023-02-12T12:15:51.985Z,8.82
2023-02-12T12:19:06.860Z,8.82
2023-02-12T12:21:33.456Z,8.71
2023-02-12T12:24:26.248Z,8.73
2023-02-12T12:27:02.509Z,8.65
2023-02-12T12:29:49.949Z,8.69
2023-02-12T12:32:20.114Z,8.68
2023-02-12T12:34:47.176Z,8.67
2023-02-12T12:37:34.685Z,8.65
2023-02-12T12:40:07.601Z,8.61
2023-02-12T12:42:52.487Z,8.65
2023-02-12T12:45:28.551Z,8.73
2023-02-12T12:48:28.500Z,8.77
2023-02-12T12:51:22.936Z,8.84
2023-02-12T12:53:54.571Z,8.87
2023-02-12T12:56:27.932Z,8.84
2023-02-12T12:59:26.216Z,8.79
2023-02-12T13:02:15.461Z,8.74
2023-02-12T13:04:45.057Z,8.74
2023-02-12T13:07:26.781Z,8.80
2023-02-12T13:10:17.954Z,8.83
2023-02-12T13:13:00.063Z,8.87
2023-02-12T13:15:46.096Z,8.85
2023-02-12T13:19:07.304Z,8.85
2023-02-12T13:21:57.335Z,8.88
2023-02-12T13:24:42.211Z,8.87
2023-02-12T13:27:18.365Z,8.83
2023-02-12T13:29:51.996Z,8.84
2023-02-12T13:32:29.033Z,8.82
2023-02-12T13:34:57.202Z,8.86
2023-02-12T13:37:36.024Z,8.91
2023-02-12T13:40:06.506Z,8.82
2023-02-12T13:43:06.421Z,8.85
2023-02-12T13:45:33.336Z,8.78
2023-02-12T13:48:18.070Z,8.70
2023-02-12T13:51:01.032Z,8.57
2023-02-12T13:53:46.953Z,8.52
2023-02-12T13:56:39.887Z,8.47
2023-02-12T13:59:34.960Z,8.35
2023-02-12T14:02:22.317Z,8.41
2023-02-12T14:04:59.281Z,8.40
2023-02-12T14:07:49.760Z,8.45
2023-02-12T14:10:34.217Z,8.42
2023-02-12T14:13:24.991Z,8.38
2023-02-12T14:15:55.696Z,8.35
2023-02-12T14:18:34.775Z,8.42
2023-02-12T14:21:13.439Z,8.46
2023-02-12T14:23:41.968Z,8.53
2023-02-12T14:26:12.732Z,8.50
2023-02-12T14:29:01.253Z,8.49
2023-02-12T14:31:33.017Z,8.52
2023-02-12T14:34:06.781Z,8.53
2023-02-12T14:36:38.095Z,8.50
2023-02-12T14:39:29.122Z,8.55
2023-02-12T14:42:15.520Z,8.57
2023-02-12T14:44:45.675Z,8.59
2023-02-12T14:47:30.199Z,8.61
2023-02-12T14:50:02.367Z,8.58
2023-02-12T14:52:39.094Z,8.60
2023-02-12T14:55:18.418Z,8.59
2023-02-12T14:57:45.716Z,8.62
2023-02-12T15:00:21.976Z,8.58
2023-02-12T15:03:21.717Z,8.62
2023-02-12T15:06:06.242Z,8.56
2023-02-12T15:09:00.601Z,8.56
2023-02-12T15:11:46.688Z,8.52
2023-02-12T15:14:31.374Z,8.55
2023-02-12T15:17:09.395Z,8.47
2023-02-12T15:19:47.671Z,8.49
2023-02-12T15:22:36.361Z,8.36
2023-02-12T15:25:29.305Z,8.31
2023-02-12T15:28:35.941Z,8.29
2023-02-12T15:31:05.667Z,8.26
2023-02-12T15:33:34.728Z,8.09
2023-02-12T15:36:03.109Z,8.07
2023-02-12T15:38:35.590Z,8.05
2023-02-12T15:41:03.559Z,7.97
2023-02-12T15:43:35.739Z,7.94
2023-02-12T15:46:08.317Z,7.90
2023-02-12T15:48:36.740Z,7.91
2023-02-12T15:51:21.284Z,7.92
2023-02-12T15:53:49.054Z,7.98
2023-02-12T15:56:21.037Z,8.00
2023-02-12T15:58:51.747Z,8.09
2023-02-12T16:01:21.119Z,8.02
2023-02-12T16:03:51.298Z,8.02
2023-02-12T16:06:19.593Z,8.02
2023-02-12T16:08:49.685Z,8.01
2023-02-12T16:11:20.567Z,7.96
2023-02-12T16:13:55.037Z,7.99
2023-02-12T16:16:25.895Z,7.91
2023-02-12T16:19:26.832Z,7.97
2023-02-12T16:22:07.806Z,7.96
2023-02-12T16:24:38.537Z,7.86
2023-02-12T16:27:14.416Z,7.88
2023-02-12T16:29:47.898Z,7.86
2023-02-12T16:32:34.937Z,7.86
2023-02-12T16:35:14.055Z,7.91
2023-02-12T16:37:45.154Z,7.94
2023-02-12T16:40:12.119Z,7.95
2023-02-12T16:42:47.221Z,8.00
2023-02-12T16:45:26.188Z,8.01
2023-02-12T16:48:08.408Z,7.95
2023-02-12T16:50:46.024Z,7.95
2023-02-12T16:53:29.298Z,7.95
2023-02-12T16:55:57.637Z,7.98
2023-02-12T16:58:25.983Z,7.96
2023-02-12T17:00:57.688Z,7.94
2023-02-12T17:03:25.611Z,7.89
2023-02-12T17:05:53.174Z,7.91
2023-02-12T17:08:22.833Z,7.95
2023-02-12T17:10:50.496Z,7.95
2023-02-12T17:13:17.648Z,7.98
2023-02-12T17:15:57.578Z,8.01
2023-02-12T17:18:25.025Z,7.95
2023-02-12T17:20:58.822Z,7.97
2023-02-12T17:23:26.191Z,7.93
2023-02-12T17:25:54.047Z,7.91
2023-02-12T17:28:22.228Z,7.95
2023-02-12T17:30:49.160Z,7.85
2023-02-12T17:33:15.936Z,7.85
2023-02-12T17:35:42.786Z,7.73
2023-02-12T17:38:09.203Z,7.67
2023-02-12T17:40:37.627Z,7.65
2023-02-12T17:43:05.594Z,7.58
2023-02-12T17:45:33.189Z,7.61
2023-02-12T17:47:59.746Z,7.56
2023-02-12T17:50:26.524Z,7.58
2023-02-12T17:52:53.145Z,7.63
2023-02-12T17:55:19.918Z,7.67
2023-02-12T17:57:51.224Z,7.66
2023-02-12T18:00:18.924Z,7.73
2023-02-12T18:02:45.545Z,7.72
2023-02-12T18:05:12.479Z,7.69
2023-02-12T18:07:39.550Z,7.69
2023-02-12T18:10:09.153Z,7.71
2023-02-12T18:12:39.753Z,7.78
2023-02-12T18:15:08.224Z,7.81
2023-02-12T18:17:35.883Z,7.78
2023-02-12T18:20:05.219Z,7.75
2023-02-12T18:22:33.723Z,7.77
2023-02-12T18:25:00.796Z,7.78
2023-02-12T18:27:27.462Z,7.78
2023-02-12T18:29:56.311Z,7.73
2023-02-12T18:32:23.880Z,7.71
2023-02-12T18:34:50.784Z,7.69
2023-02-12T18:37:17.185Z,7.67
2023-02-12T18:39:43.988Z,7.63
2023-02-12T18:42:10.304Z,7.52
2023-02-12T18:44:37.164Z,7.54
2023-02-12T18:47:03.611Z,7.53
2023-02-12T18:49:30.474Z,7.58
2023-02-12T18:51:57.171Z,7.46
2023-02-12T18:54:24.112Z,7.41
2023-02-12T18:56:52.339Z,7.37
2023-02-12T18:59:20.431Z,7.37
2023-02-12T19:01:48.892Z,7.36
2023-02-12T19:04:17.669Z,7.36
2023-02-12T19:06:48.177Z,7.32
2023-02-12T19:09:20.158Z,7.31
2023-02-12T19:11:48.895Z,7.31
2023-02-12T19:14:17.717Z,7.27
2023-02-12T19:16:44.869Z,7.31
2023-02-12T19:19:12.636Z,7.35
2023-02-12T19:21:39.269Z,7.43
2023-02-12T19:24:06.685Z,7.41
2023-02-12T19:26:34.909Z,7.39
2023-02-12T19:29:02.227Z,7.41
2023-02-12T19:31:37.702Z,7.46
2023-02-12T19:34:07.570Z,7.50
2023-02-12T19:36:36.071Z,7.55
2023-02-12T19:39:05.141Z,7.58
2023-02-12T19:41:32.569Z,7.60
2023-02-12T19:44:00.768Z,7.61
2023-02-12T19:46:30.489Z,7.62
2023-02-12T19:52:16.934Z,7.67
2023-02-12T19:54:44.885Z,7.66
2023-02-12T19:57:13.245Z,7.60
2023-02-12T19:59:41.160Z,7.64
2023-02-12T20:02:09.826Z,7.65
2023-02-12T20:04:36.680Z,7.61
2023-02-12T20:07:05.324Z,7.63
2023-02-12T20:09:32.199Z,7.58
2023-02-12T20:11:59.195Z,7.58
2023-02-12T20:14:26.280Z,7.57
2023-02-12T20:16:57.847Z,7.59
2023-02-12T20:19:28.458Z,7.56
2023-02-12T20:21:56.799Z,7.61
2023-02-12T20:24:26.211Z,7.66
2023-02-12T20:26:53.805Z,7.64
2023-02-12T20:29:21.301Z,7.67
2023-02-12T20:31:48.355Z,7.65
2023-02-12T20:34:17.647Z,7.58
2023-02-12T20:36:45.446Z,7.59
2023-02-12T20:39:15.247Z,7.60
2023-02-12T20:41:41.810Z,7.51
2023-02-12T20:44:15.707Z,7.52
2023-02-12T20:46:52.406Z,7.55
2023-02-12T20:49:24.842Z,7.53
2023-02-12T20:51:52.189Z,7.54
2023-02-12T20:54:18.717Z,7.54
2023-02-12T20:56:45.401Z,7.49
2023-02-12T20:59:12.187Z,7.44
2023-02-12T21:01:40.727Z,7.49
2023-02-12T21:04:10.643Z,7.53
2023-02-12T21:06:39.529Z,7.52
2023-02-12T21:09:09.160Z,7.53
2023-02-12T21:11:36.791Z,7.57
2023-02-12T21:14:20.898Z,7.56
2023-02-12T21:16:49.860Z,7.57
2023-02-12T21:19:18.229Z,7.51
2023-02-12T21:21:45.524Z,7.45
2023-02-12T21:24:18.995Z,7.41
2023-02-12T21:26:45.563Z,7.40
2023-02-12T21:29:12.911Z,7.37
2023-02-12T21:31:42.345Z,7.32
2023-02-12T21:34:13.124Z,7.33
2023-02-12T21:36:41.594Z,7.36
2023-02-12T21:39:11.985Z,7.30
2023-02-12T21:41:40.557Z,7.33
2023-02-12T21:44:12.039Z,7.37
2023-02-12T21:46:38.848Z,7.35
2023-02-12T21:49:06.645Z,7.37
2023-02-12T21:51:39.536Z,7.37
2023-02-12T21:54:12.592Z,7.39
2023-02-12T21:56:40.330Z,7.46
2023-02-12T21:59:11.026Z,7.47
2023-02-12T22:01:41.923Z,7.48
2023-02-12T22:04:09.439Z,7.47
2023-02-12T22:06:48.120Z,7.34
2023-02-12T22:09:16.882Z,7.54
2023-02-12T22:11:43.812Z,7.54
2023-02-12T22:14:16.461Z,7.54
2023-02-12T22:16:43.544Z,7.54
2023-02-12T22:19:10.589Z,7.52
2023-02-12T22:21:39.763Z,7.56
2023-02-12T22:24:10.101Z,7.52
2023-02-12T22:26:36.400Z,7.52
2023-02-12T22:29:08.353Z,7.49
2023-02-12T22:31:37.096Z,7.50
2023-02-12T22:34:06.389Z,7.51
2023-02-12T22:36:35.581Z,7.49
2023-02-12T22:39:03.204Z,7.50
2023-02-12T22:41:29.788Z,7.52
2023-02-12T22:44:01.107Z,7.51
2023-02-12T22:46:27.727Z,7.50
2023-02-12T22:48:54.322Z,7.48
2023-02-12T22:51:26.826Z,7.42
2023-02-12T22:53:54.544Z,7.39
2023-02-12T22:56:21.659Z,7.33
2023-02-12T22:58:48.664Z,7.33
2023-02-12T23:01:17.114Z,7.38
2023-02-12T23:03:44.924Z,7.42
2023-02-12T23:06:14.145Z,7.49
2023-02-12T23:08:41.424Z,7.48
2023-02-12T23:11:08.578Z,7.52
2023-02-12T23:13:35.922Z,7.57
2023-02-12T23:16:03.431Z,7.64
2023-02-12T23:18:30.738Z,7.56
2023-02-12T23:20:57.635Z,7.51
2023-02-12T23:23:24.613Z,7.56
2023-02-12T23:25:50.856Z,7.57
2023-02-12T23:28:17.633Z,7.65
2023-02-12T23:30:44.072Z,7.68
2023-02-12T23:33:10.815Z,7.61
2023-02-12T23:35:36.989Z,7.61
2023-02-12T23:38:03.720Z,7.66
2023-02-12T23:40:31.262Z,7.66
2023-02-12T23:42:57.853Z,7.65
2023-02-12T23:45:24.101Z,7.69
2023-02-12T23:47:50.616Z,7.68
2023-02-12T23:50:16.912Z,7.64
2023-02-12T23:52:43.391Z,7.64
2023-02-12T23:55:09.704Z,7.66
2023-02-12T23:57:36.085Z,7.74
